Time;durP1;ratioP1;P1;durP2;ratioP2;P2;SDS_P1;SDS_P2;PMS_P1;PMS_P2;Temp;Humidity;BMP_temperature;BMP_pressure;BME280_temperature;BME280_humidity;BME280_pressure;Samples;Min_cycle;Max_cycle;Signal;HPM_P1;HPM_P2
2021/07/07 00:00:36;;;;;;;1.87;1.20;;;22.20;42.00;;;;;;10451428;28;20236;-74
2021/07/07 00:05:41;;;;;;;1.40;1.30;;;22.10;41.90;;;;;;10444640;28;20249;-74
2021/07/07 00:10:44;;;;;;;1.63;1.23;;;22.10;43.10;;;;;;10448204;28;20229;-74
2021/07/07 00:15:47;;;;;;;1.50;1.40;;;22.10;42.40;;;;;;10450001;28;20604;-74
2021/07/07 00:20:55;;;;;;;2.07;1.30;;;22.00;42.50;;;;;;10459384;28;20648;-75
2021/07/07 00:25:59;;;;;;;1.70;1.60;;;22.00;43.50;;;;;;10464644;28;20219;-74
2021/07/07 00:31:03;;;;;;;1.50;1.40;;;22.10;43.70;;;;;;10448271;28;20232;-73
2021/07/07 00:36:08;;;;;;;1.80;1.70;;;22.00;42.90;;;;;;10452050;28;20228;-74
2021/07/07 00:41:12;;;;;;;2.20;1.70;;;22.00;43.90;;;;;;10455506;28;20228;-74
2021/07/07 00:46:15;;;;;;;1.50;1.40;;;22.00;43.20;;;;;;10454804;28;20224;-74
2021/07/07 00:51:19;;;;;;;2.00;1.30;;;22.00;43.30;;;;;;10460056;28;20224;-74
2021/07/07 00:56:23;;;;;;;1.67;1.40;;;22.10;44.20;;;;;;10445060;28;20696;-74
2021/07/07 01:01:27;;;;;;;1.40;1.30;;;22.20;43.60;;;;;;10451527;28;21137;-74
2021/07/07 01:06:31;;;;;;;1.50;1.40;;;22.30;43.30;;;;;;10452150;28;20713;-74
2021/07/07 01:11:35;;;;;;;2.13;1.50;;;22.30;44.10;;;;;;10452761;28;20238;-74
2021/07/07 01:16:43;;;;;;;1.80;1.70;;;22.40;43.40;;;;;;10448881;28;20229;-74
2021/07/07 01:21:48;;;;;;;2.37;1.50;;;22.40;44.50;;;;;;10445517;28;20370;-74
2021/07/07 01:26:51;;;;;;;1.73;1.60;;;22.50;43.90;;;;;;10452091;28;20235;-74
2021/07/07 01:31:54;;;;;;;2.07;1.80;;;22.50;43.30;;;;;;10447713;28;20824;-74
2021/07/07 01:36:59;;;;;;;2.07;1.87;;;22.60;43.30;;;;;;10448217;28;20796;-74
2021/07/07 01:42:02;;;;;;;2.00;1.77;;;22.60;44.00;;;;;;10446153;28;20595;-73
2021/07/07 01:47:06;;;;;;;5.13;1.67;;;22.60;43.40;;;;;;10444167;28;20237;-74
2021/07/07 01:52:11;;;;;;;4.33;1.80;;;22.60;43.50;;;;;;10451133;28;20220;-74
2021/07/07 01:57:14;;;;;;;2.10;1.80;;;22.50;44.20;;;;;;10449968;28;20232;-74
2021/07/07 02:02:17;;;;;;;2.00;1.90;;;22.50;43.60;;;;;;10447157;28;20239;-74
2021/07/07 02:07:22;;;;;;;2.87;2.17;;;22.40;43.70;;;;;;10445549;28;20252;-74
2021/07/07 02:12:25;;;;;;;3.73;2.30;;;22.50;44.60;;;;;;10450719;28;20245;-74
2021/07/07 02:17:28;;;;;;;2.73;2.13;;;22.50;43.90;;;;;;10454637;28;20225;-74
2021/07/07 02:22:33;;;;;;;2.40;2.23;;;22.40;43.80;;;;;;10449083;28;20221;-74
2021/07/07 02:27:36;;;;;;;1.83;1.73;;;22.50;44.80;;;;;;10449307;28;20222;-74
2021/07/07 02:32:39;;;;;;;3.73;2.30;;;22.50;44.10;;;;;;10447871;28;20650;-74
2021/07/07 02:37:45;;;;;;;2.27;2.03;;;22.50;44.10;;;;;;10450551;28;20225;-74
2021/07/07 02:42:49;;;;;;;6.43;2.27;;;22.50;44.90;;;;;;10450196;28;20229;-74
2021/07/07 02:47:53;;;;;;;3.47;2.37;;;22.60;44.40;;;;;;10446656;28;20224;-74
2021/07/07 02:52:58;;;;;;;5.37;2.20;;;22.50;44.20;;;;;;10442837;28;20231;-74
2021/07/07 02:58:02;;;;;;;7.40;2.30;;;22.60;45.00;;;;;;10448992;28;20597;-73
2021/07/07 03:03:07;;;;;;;4.30;2.60;;;22.60;44.60;;;;;;10449994;28;20240;-74
2021/07/07 03:08:13;;;;;;;2.33;2.10;;;22.60;44.80;;;;;;10445511;28;20624;-74
2021/07/07 03:13:18;;;;;;;2.40;2.20;;;22.60;45.20;;;;;;10448381;28;20240;-74
2021/07/07 03:18:22;;;;;;;3.07;2.70;;;22.50;44.60;;;;;;10445880;28;20221;-74
2021/07/07 03:23:27;;;;;;;4.07;2.80;;;22.50;44.90;;;;;;10450563;28;21447;-74
2021/07/07 03:28:31;;;;;;;2.80;2.60;;;22.50;45.10;;;;;;10444960;28;20679;-74
2021/07/07 03:33:34;;;;;;;2.97;2.20;;;22.50;44.70;;;;;;10436040;28;20926;-74
2021/07/07 03:38:38;;;;;;;2.00;1.90;;;22.60;44.50;;;;;;10455607;28;20323;-74
2021/07/07 03:43:42;;;;;;;2.00;1.90;;;22.50;44.70;;;;;;10448269;28;20228;-74
2021/07/07 03:48:45;;;;;;;2.00;1.80;;;22.50;44.00;;;;;;10452553;28;20233;-74
2021/07/07 03:53:49;;;;;;;2.80;2.00;;;22.40;43.80;;;;;;10459173;28;20664;-74
2021/07/07 03:58:52;;;;;;;2.50;2.00;;;22.30;44.00;;;;;;10460040;28;20255;-74
2021/07/07 04:03:55;;;;;;;2.30;2.10;;;22.20;43.60;;;;;;10458802;28;20595;-74
2021/07/07 04:09:00;;;;;;;2.00;1.80;;;22.20;43.70;;;;;;10452797;28;20228;-74
2021/07/07 04:14:03;;;;;;;2.40;1.70;;;22.10;44.10;;;;;;10455154;28;20221;-74
2021/07/07 04:19:06;;;;;;;2.07;1.97;;;22.00;43.70;;;;;;10460833;28;20229;-74
2021/07/07 04:24:11;;;;;;;4.80;2.10;;;21.90;43.70;;;;;;10455606;28;20267;-74
2021/07/07 04:29:15;;;;;;;2.47;1.80;;;21.90;44.40;;;;;;10454667;28;20335;-74
2021/07/07 04:34:18;;;;;;;3.47;1.40;;;21.80;43.90;;;;;;10450676;28;20220;-74
2021/07/07 04:39:22;;;;;;;1.70;1.60;;;21.70;43.90;;;;;;10458355;28;20236;-74
2021/07/07 04:44:26;;;;;;;1.50;1.40;;;21.70;44.70;;;;;;10457667;28;20221;-74
2021/07/07 04:49:29;;;;;;;1.50;1.40;;;21.70;44.40;;;;;;10453441;28;20222;-74
2021/07/07 04:54:33;;;;;;;1.80;1.70;;;21.70;44.30;;;;;;10450868;28;20585;-74
2021/07/07 04:59:37;;;;;;;1.53;1.43;;;21.70;44.90;;;;;;10448323;28;20240;-74
2021/07/07 05:04:40;;;;;;;1.70;1.60;;;21.80;44.60;;;;;;10456274;28;20578;-74
2021/07/07 05:09:44;;;;;;;3.03;1.80;;;21.70;44.40;;;;;;10450439;28;20244;-74
2021/07/07 05:14:47;;;;;;;1.67;1.20;;;21.80;45.00;;;;;;10454222;28;20577;-74
2021/07/07 05:19:51;;;;;;;1.93;1.40;;;21.80;44.60;;;;;;10451326;28;20233;-74
2021/07/07 05:24:56;;;;;;;1.60;1.50;;;21.80;44.50;;;;;;10447662;28;20248;-74
2021/07/07 05:29:59;;;;;;;1.53;1.43;;;21.80;44.80;;;;;;10452835;28;20232;-74
2021/07/07 05:35:05;;;;;;;1.40;1.30;;;21.70;44.00;;;;;;10443350;28;20228;-73
2021/07/07 05:40:11;;;;;;;1.20;1.20;;;21.60;44.10;;;;;;10450172;28;20594;-73
2021/07/07 05:45:14;;;;;;;1.40;1.30;;;21.60;45.00;;;;;;10450473;28;20901;-74
2021/07/07 05:50:19;;;;;;;1.30;1.20;;;21.50;44.50;;;;;;10456768;28;20229;-74
2021/07/07 05:55:24;;;;;;;1.33;1.27;;;21.50;44.70;;;;;;10455223;28;20235;-74
2021/07/07 06:00:28;;;;;;;1.10;1.10;;;21.50;45.30;;;;;;10449580;28;20253;-74
2021/07/07 06:05:32;;;;;;;1.43;1.20;;;21.50;45.00;;;;;;10453559;28;20217;-74
2021/07/07 06:10:36;;;;;;;1.50;1.40;;;21.50;45.00;;;;;;10448838;28;20597;-71
2021/07/07 06:15:40;;;;;;;1.30;1.20;;;21.50;45.50;;;;;;10454753;28;20221;-71
2021/07/07 06:20:43;;;;;;;1.60;1.50;;;21.50;45.30;;;;;;10454145;28;20236;-71
2021/07/07 06:25:48;;;;;;;1.20;1.20;;;21.50;45.30;;;;;;10453219;28;21010;-71
2021/07/07 06:30:51;;;;;;;2.20;1.60;;;21.60;45.80;;;;;;10451840;28;20843;-71
2021/07/07 06:35:54;;;;;;;1.70;1.60;;;21.60;45.60;;;;;;10452509;28;20335;-71
2021/07/07 06:40:59;;;;;;;1.60;1.50;;;21.70;45.60;;;;;;10444954;28;20240;-71
2021/07/07 06:46:02;;;;;;;2.00;1.70;;;21.60;46.00;;;;;;10451013;28;20236;-71
2021/07/07 06:51:05;;;;;;;1.57;1.47;;;21.70;45.70;;;;;;10457142;28;20267;-71
2021/07/07 06:56:14;;;;;;;3.93;1.60;;;21.70;46.20;;;;;;10456600;28;20228;-71
2021/07/07 07:01:17;;;;;;;2.20;1.30;;;21.70;46.10;;;;;;10448042;28;20675;-71
2021/07/07 07:06:21;;;;;;;1.50;1.40;;;21.70;45.60;;;;;;10451632;28;20229;-71
2021/07/07 07:11:26;;;;;;;1.63;1.53;;;21.70;45.40;;;;;;10453754;28;20236;-71
2021/07/07 07:16:29;;;;;;;1.60;1.50;;;21.70;45.70;;;;;;10448066;28;20224;-71
2021/07/07 07:21:32;;;;;;;2.00;1.77;;;21.70;45.30;;;;;;10448399;28;20236;-71
2021/07/07 07:26:37;;;;;;;1.87;1.77;;;21.70;45.40;;;;;;10448616;28;20232;-71
2021/07/07 07:31:41;;;;;;;2.10;2.00;;;21.70;45.70;;;;;;10446873;28;20231;-71
2021/07/07 07:36:46;;;;;;;2.10;2.00;;;21.70;45.60;;;;;;10447183;28;20227;-71
2021/07/07 07:41:50;;;;;;;2.13;2.03;;;21.70;45.50;;;;;;10447203;28;20233;-71
2021/07/07 07:46:56;;;;;;;1.87;1.77;;;21.60;45.90;;;;;;10452494;28;20601;-70
2021/07/07 07:52:00;;;;;;;1.90;1.80;;;21.60;45.60;;;;;;10458439;28;20236;-70
2021/07/07 07:57:05;;;;;;;1.70;1.60;;;21.60;45.70;;;;;;10451102;28;20631;-71
2021/07/07 08:02:08;;;;;;;4.43;2.40;;;21.50;46.30;;;;;;10443486;28;20600;-71
2021/07/07 08:07:11;;;;;;;2.67;2.00;;;21.60;46.10;;;;;;10452275;28;20225;-70
2021/07/07 08:12:16;;;;;;;2.90;2.60;;;21.60;45.90;;;;;;10449552;28;20235;-70
2021/07/07 08:17:20;;;;;;;2.47;2.27;;;21.60;46.20;;;;;;10447237;28;20228;-70
2021/07/07 08:22:23;;;;;;;2.80;2.60;;;21.60;46.00;;;;;;10443467;28;20229;-71
2021/07/07 08:27:28;;;;;;;2.53;2.33;;;21.60;46.00;;;;;;10450662;28;20238;-70
2021/07/07 08:32:31;;;;;;;2.37;2.10;;;21.60;46.30;;;;;;10452118;28;20216;-70
2021/07/07 08:37:34;;;;;;;2.50;2.23;;;21.60;46.10;;;;;;10453074;28;20248;-70
2021/07/07 08:42:42;;;;;;;2.97;2.10;;;21.50;46.20;;;;;;10452191;28;20229;-70
2021/07/07 08:47:46;;;;;;;2.50;1.60;;;21.50;46.70;;;;;;10457356;28;20233;-70
2021/07/07 08:52:49;;;;;;;1.83;1.73;;;21.50;46.30;;;;;;10460662;28;20229;-70
2021/07/07 08:57:55;;;;;;;2.93;1.90;;;21.50;46.30;;;;;;10458503;28;20225;-70
2021/07/07 09:03:08;;;;;;;1.80;1.70;;;21.50;46.70;;;;;;10447683;28;20229;-70
2021/07/07 09:08:12;;;;;;;1.80;1.70;;;21.50;46.60;;;;;;10452622;28;20263;-70
2021/07/07 09:13:18;;;;;;;1.90;1.80;;;21.60;46.70;;;;;;10447322;28;20224;-70
2021/07/07 09:18:23;;;;;;;1.90;1.80;;;21.60;47.20;;;;;;10457986;28;22942;-70
2021/07/07 09:23:28;;;;;;;2.00;1.80;;;21.70;47.10;;;;;;10443467;28;20233;-70
2021/07/07 09:28:34;;;;;;;1.63;1.53;;;21.80;46.80;;;;;;10450031;28;20229;-70
2021/07/07 09:33:41;;;;;;;2.90;1.90;;;21.90;46.90;;;;;;10444752;28;20232;-70
2021/07/07 09:38:45;;;;;;;2.20;2.03;;;22.00;46.90;;;;;;10446102;28;20292;-70
2021/07/07 09:43:52;;;;;;;2.33;2.20;;;22.00;46.40;;;;;;10451112;28;20736;-70
2021/07/07 09:48:55;;;;;;;2.33;2.23;;;22.10;46.70;;;;;;10440024;28;20801;-70
2021/07/07 09:54:00;;;;;;;2.27;2.13;;;22.10;46.30;;;;;;10454220;28;20225;-70
2021/07/07 09:59:05;;;;;;;2.37;2.17;;;22.20;46.40;;;;;;10453742;28;20224;-68
2021/07/07 10:04:11;;;;;;;2.17;2.07;;;22.20;46.30;;;;;;10452814;28;20232;-68
2021/07/07 10:09:16;;;;;;;1.90;1.77;;;22.30;46.30;;;;;;10448052;28;20228;-67
2021/07/07 10:14:21;;;;;;;1.87;1.60;;;22.30;46.20;;;;;;10458590;28;20232;-68
2021/07/07 10:19:25;;;;;;;2.10;1.90;;;22.40;46.60;;;;;;10449398;28;20712;-68
2021/07/07 10:24:30;;;;;;;2.10;1.90;;;22.40;46.40;;;;;;10450062;28;20225;-68
2021/07/07 10:29:37;;;;;;;2.20;1.87;;;22.50;46.50;;;;;;10446343;28;20610;-68
2021/07/07 10:34:41;;;;;;;2.23;1.87;;;22.60;46.40;;;;;;10446355;28;20221;-68
2021/07/07 10:39:44;;;;;;;2.30;2.20;;;22.60;46.10;;;;;;10457387;28;20233;-68
2021/07/07 10:44:51;;;;;;;2.13;1.90;;;22.70;45.70;;;;;;10456604;28;20221;-68
2021/07/07 10:49:56;;;;;;;2.00;1.90;;;22.70;46.20;;;;;;10454567;28;20663;-68
2021/07/07 10:55:01;;;;;;;2.00;1.80;;;22.80;45.90;;;;;;10447030;28;20221;-68
2021/07/07 11:00:30;;;;;;;2.60;1.83;;;22.80;46.00;;;;;;10449065;28;20769;-68
2021/07/07 11:05:33;;;;;;;1.77;1.70;;;22.80;46.10;;;;;;10453795;28;20228;-68
2021/07/07 11:10:54;;;;;;;1.90;1.80;;;22.90;46.00;;;;;;10452583;28;20282;-68
2021/07/07 11:15:58;;;;;;;1.90;1.80;;;22.90;46.30;;;;;;10448932;28;20770;-68
2021/07/07 11:21:07;;;;;;;1.80;1.70;;;22.90;45.90;;;;;;10446998;28;20232;-69
2021/07/07 11:26:10;;;;;;;2.03;1.83;;;22.90;46.00;;;;;;10453845;28;20225;-68
2021/07/07 11:31:16;;;;;;;2.87;2.07;;;23.00;45.90;;;;;;10451733;28;20220;-68
2021/07/07 11:36:24;;;;;;;1.93;1.83;;;23.00;45.80;;;;;;10445561;28;20225;-68
2021/07/07 11:41:28;;;;;;;1.80;1.70;;;23.10;46.20;;;;;;10446283;28;20226;-68
2021/07/07 11:46:33;;;;;;;2.10;1.90;;;23.10;45.70;;;;;;10451675;28;20876;-68
2021/07/07 11:51:38;;;;;;;1.93;1.83;;;23.10;45.70;;;;;;10449179;28;20262;-68
2021/07/07 11:56:43;;;;;;;1.90;1.80;;;23.20;45.80;;;;;;10454978;28;20228;-68
2021/07/07 12:01:59;;;;;;;1.83;1.73;;;23.20;45.70;;;;;;10450490;28;20225;-68
2021/07/07 12:07:02;;;;;;;2.47;2.27;;;23.30;46.10;;;;;;10454535;28;20230;-69
2021/07/07 12:12:08;;;;;;;1.90;1.80;;;23.30;45.70;;;;;;10451450;28;20256;-68
2021/07/07 12:17:12;;;;;;;2.03;1.93;;;23.50;45.80;;;;;;10456240;28;20664;-68
2021/07/07 12:22:19;;;;;;;2.60;2.13;;;23.50;45.70;;;;;;10454633;28;20708;-68
2021/07/07 12:27:24;;;;;;;2.23;2.13;;;23.60;45.50;;;;;;10463186;28;20224;-68
2021/07/07 12:32:29;;;;;;;2.53;2.43;;;23.70;45.30;;;;;;10451857;28;20217;-68
2021/07/07 12:37:32;;;;;;;2.33;2.23;;;23.80;45.20;;;;;;10456410;28;21077;-68
2021/07/07 12:42:37;;;;;;;1.93;1.83;;;23.80;45.30;;;;;;10453936;28;20598;-68
2021/07/07 12:47:43;;;;;;;2.47;2.27;;;23.90;44.90;;;;;;10454637;28;20236;-68
2021/07/07 12:52:47;;;;;;;2.50;2.30;;;24.00;44.80;;;;;;10454368;28;20713;-68
2021/07/07 12:57:55;;;;;;;2.20;2.10;;;24.10;44.60;;;;;;10451136;28;20233;-68
2021/07/07 13:03:02;;;;;;;2.20;2.10;;;24.10;44.10;;;;;;10453163;28;20224;-68
2021/07/07 13:08:08;;;;;;;1.73;1.73;;;24.10;43.80;;;;;;10457484;28;20218;-68
2021/07/07 13:13:36;;;;;;;2.67;2.47;;;24.20;43.70;;;;;;10455501;28;20316;-68
2021/07/07 13:19:03;;;;;;;2.20;2.10;;;24.20;44.20;;;;;;10454741;28;20748;-68
2021/07/07 13:24:08;;;;;;;2.93;2.70;;;24.30;44.50;;;;;;10449226;28;20235;-68
2021/07/07 13:29:20;;;;;;;4.63;2.70;;;24.30;43.90;;;;;;10450729;28;20251;-68
2021/07/07 13:34:24;;;;;;;3.37;3.07;;;24.20;44.20;;;;;;10451414;28;20224;-68
2021/07/07 13:39:28;;;;;;;3.17;2.93;;;24.20;44.40;;;;;;10450949;28;20598;-68
2021/07/07 13:44:31;;;;;;;3.77;3.37;;;24.20;44.10;;;;;;10455082;28;20225;-68
2021/07/07 13:49:36;;;;;;;5.00;3.10;;;24.20;44.10;;;;;;10456242;28;20857;-68
2021/07/07 13:54:40;;;;;;;4.07;3.77;;;24.20;44.10;;;;;;10449680;28;20607;-68
2021/07/07 13:59:43;;;;;;;3.70;3.40;;;24.20;44.30;;;;;;10449050;28;20241;-68
2021/07/07 14:04:48;;;;;;;3.80;3.60;;;24.10;44.60;;;;;;10451713;28;20716;-68
2021/07/07 14:09:51;;;;;;;3.77;3.47;;;24.10;44.90;;;;;;10452249;28;20890;-68
2021/07/07 14:14:54;;;;;;;4.03;3.77;;;24.00;44.50;;;;;;10456381;28;20760;-68
2021/07/07 14:19:58;;;;;;;4.37;4.00;;;24.00;44.50;;;;;;10449026;28;20224;-68
2021/07/07 14:25:02;;;;;;;4.10;3.90;;;24.00;44.80;;;;;;10445513;28;20810;-71
2021/07/07 14:30:08;;;;;;;5.37;4.30;;;23.90;44.70;;;;;;10448719;28;20799;-68
2021/07/07 14:35:14;;;;;;;4.60;4.23;;;23.90;45.00;;;;;;10452777;28;20224;-68
2021/07/07 14:40:17;;;;;;;4.13;3.87;;;23.90;44.80;;;;;;10457143;28;20236;-68
2021/07/07 14:45:20;;;;;;;4.37;4.10;;;23.90;44.80;;;;;;10444472;28;20237;-68
2021/07/07 14:50:25;;;;;;;3.83;3.57;;;23.90;44.70;;;;;;10450835;28;20235;-68
2021/07/07 14:55:32;;;;;;;4.33;4.03;;;23.90;44.90;;;;;;10450841;28;20221;-68
2021/07/07 15:00:35;;;;;;;3.77;3.50;;;23.90;45.00;;;;;;10457169;28;20316;-68
2021/07/07 15:05:40;;;;;;;4.50;4.10;;;23.90;44.80;;;;;;10446605;28;20232;-68
2021/07/07 15:10:43;;;;;;;4.80;4.50;;;23.90;45.40;;;;;;10453238;28;21404;-68
2021/07/07 15:15:46;;;;;;;5.23;4.83;;;23.90;44.90;;;;;;10451538;28;20221;-68
2021/07/07 15:20:51;;;;;;;5.07;4.70;;;23.90;44.90;;;;;;10449577;28;20307;-68
2021/07/07 15:25:54;;;;;;;5.20;4.90;;;23.80;44.60;;;;;;10448711;28;20224;-68
2021/07/07 15:30:57;;;;;;;5.50;5.10;;;23.80;44.70;;;;;;10446450;28;20225;-68
2021/07/07 15:36:03;;;;;;;7.93;7.33;;;23.70;45.20;;;;;;10450755;28;20225;-68
2021/07/07 15:41:06;;;;;;;8.47;7.77;;;23.70;44.90;;;;;;10452183;28;20861;-68
2021/07/07 15:46:11;;;;;;;10.00;9.07;;;23.60;45.00;;;;;;10454971;28;20247;-68
2021/07/07 15:51:16;;;;;;;11.73;10.83;;;23.60;45.00;;;;;;10452785;28;20609;-68
2021/07/07 15:56:19;;;;;;;13.37;12.27;;;23.50;45.10;;;;;;10454523;28;20256;-68
2021/07/07 16:01:22;;;;;;;13.23;12.13;;;23.50;45.30;;;;;;10447652;28;20236;-68
2021/07/07 16:06:31;;;;;;;13.80;12.60;;;23.50;45.30;;;;;;10443961;28;20230;-68
2021/07/07 16:11:34;;;;;;;12.13;11.13;;;23.40;45.70;;;;;;10452711;28;20649;-68
2021/07/07 16:16:37;;;;;;;11.10;10.23;;;23.40;45.50;;;;;;10460450;28;20679;-68
2021/07/07 16:21:42;;;;;;;11.33;10.43;;;23.40;45.50;;;;;;10441197;28;20240;-68
2021/07/07 16:26:45;;;;;;;11.37;10.40;;;23.50;45.30;;;;;;10451448;28;20232;-68
2021/07/07 16:31:49;;;;;;;10.60;9.67;;;23.50;45.40;;;;;;10448008;28;20225;-68
2021/07/07 16:36:53;;;;;;;10.33;9.60;;;23.50;45.10;;;;;;10451508;28;20220;-68
2021/07/07 16:41:56;;;;;;;9.77;9.07;;;23.60;45.50;;;;;;10446543;28;20235;-68
2021/07/07 16:47:00;;;;;;;8.93;8.23;;;23.60;45.20;;;;;;10448247;28;20228;-68
2021/07/07 16:52:05;;;;;;;9.03;8.17;;;23.70;44.50;;;;;;10448596;28;20225;-68
2021/07/07 16:57:08;;;;;;;9.13;8.47;;;23.70;44.40;;;;;;10452344;28;20236;-68
2021/07/07 17:02:11;;;;;;;9.17;8.43;;;23.70;44.30;;;;;;10456909;28;20706;-68
2021/07/07 17:07:16;;;;;;;9.27;8.60;;;23.70;44.20;;;;;;10451030;28;20310;-74
2021/07/07 17:12:19;;;;;;;8.70;8.10;;;23.70;44.10;;;;;;10446697;28;20221;-74
2021/07/07 17:17:25;;;;;;;8.40;7.80;;;23.80;44.10;;;;;;10448508;28;20250;-74
2021/07/07 17:22:30;;;;;;;8.10;7.50;;;23.80;44.00;;;;;;10448171;28;20248;-74
2021/07/07 17:27:33;;;;;;;7.43;6.93;;;23.80;44.30;;;;;;10450972;28;20229;-74
2021/07/07 17:32:36;;;;;;;7.40;6.90;;;23.80;44.40;;;;;;10444625;28;20224;-74
2021/07/07 17:37:41;;;;;;;5.53;5.13;;;23.80;44.50;;;;;;10452332;28;20229;-74
2021/07/07 17:42:44;;;;;;;4.50;3.90;;;23.80;44.20;;;;;;10445919;28;20727;-74
2021/07/07 17:47:47;;;;;;;4.27;3.70;;;23.80;44.30;;;;;;10448320;28;20660;-74
2021/07/07 17:52:53;;;;;;;3.73;3.53;;;23.90;44.10;;;;;;10443839;28;20783;-74
2021/07/07 17:57:56;;;;;;;3.57;3.30;;;23.90;44.00;;;;;;10445125;28;20232;-74
2021/07/07 18:02:59;;;;;;;3.20;3.00;;;24.00;44.10;;;;;;10450748;28;20243;-73
2021/07/07 18:08:04;;;;;;;3.40;3.20;;;24.00;44.10;;;;;;10451000;28;20222;-73
2021/07/07 18:13:08;;;;;;;4.63;3.50;;;24.00;44.00;;;;;;10446888;28;20225;-74
2021/07/07 18:18:12;;;;;;;3.87;3.57;;;24.00;44.20;;;;;;10446409;28;20320;-74
2021/07/07 18:23:16;;;;;;;3.63;3.33;;;24.10;44.30;;;;;;10449410;28;20245;-74
2021/07/07 18:28:20;;;;;;;3.77;3.47;;;24.10;44.30;;;;;;10452620;28;20220;-74
2021/07/07 18:33:23;;;;;;;3.67;3.37;;;24.10;44.40;;;;;;10438360;28;20758;-74
2021/07/07 18:38:27;;;;;;;3.03;2.83;;;24.10;44.30;;;;;;10446964;28;20239;-74
2021/07/07 18:43:31;;;;;;;3.57;3.37;;;24.10;44.30;;;;;;10442492;28;20232;-74
2021/07/07 18:48:37;;;;;;;3.63;3.33;;;24.10;44.20;;;;;;10454522;28;20220;-74
2021/07/07 18:53:42;;;;;;;3.50;3.20;;;24.10;44.30;;;;;;10451074;28;20678;-74
2021/07/07 18:58:45;;;;;;;3.13;2.93;;;24.00;44.10;;;;;;10448855;28;20228;-74
2021/07/07 19:03:50;;;;;;;3.27;3.03;;;23.90;43.90;;;;;;10441139;28;20229;-74
2021/07/07 19:08:54;;;;;;;3.40;3.20;;;23.90;44.10;;;;;;10449391;28;20237;-74
2021/07/07 19:13:58;;;;;;;3.80;3.50;;;23.80;45.00;;;;;;10454941;28;20220;-74
2021/07/07 19:19:01;;;;;;;4.03;3.43;;;23.70;44.20;;;;;;10454184;28;20773;-73
2021/07/07 19:24:07;;;;;;;3.37;3.07;;;23.70;44.40;;;;;;10442615;28;20788;-74
2021/07/07 19:29:10;;;;;;;3.70;3.07;;;23.60;44.50;;;;;;10449579;28;20233;-74
2021/07/07 19:34:18;;;;;;;3.30;3.10;;;23.50;44.30;;;;;;10451717;28;20312;-74
2021/07/07 19:39:24;;;;;;;3.33;3.13;;;23.50;44.50;;;;;;10450509;28;21361;-74
2021/07/07 19:44:27;;;;;;;3.30;3.10;;;23.50;44.80;;;;;;10449817;28;20241;-74
2021/07/07 19:49:31;;;;;;;3.20;3.00;;;23.40;44.70;;;;;;10452466;28;20221;-74
2021/07/07 19:54:35;;;;;;;3.07;2.77;;;23.40;44.70;;;;;;10448291;28;20240;-74
2021/07/07 19:59:38;;;;;;;4.43;3.43;;;23.30;45.00;;;;;;10447143;28;20237;-74
2021/07/07 20:04:42;;;;;;;3.80;3.23;;;23.30;45.10;;;;;;10450346;28;20233;-74
2021/07/07 20:09:46;;;;;;;3.37;2.73;;;23.20;44.90;;;;;;10446255;28;20225;-74
2021/07/07 20:14:50;;;;;;;2.93;2.73;;;23.20;45.20;;;;;;10451240;28;20232;-74
2021/07/07 20:19:53;;;;;;;3.23;3.03;;;23.20;45.10;;;;;;10439918;28;20237;-74
2021/07/07 20:24:57;;;;;;;3.00;2.83;;;23.20;45.30;;;;;;10445377;28;20596;-74
2021/07/07 20:30:01;;;;;;;2.97;2.77;;;23.20;45.50;;;;;;10449433;28;20486;-74
2021/07/07 20:35:05;;;;;;;3.40;3.20;;;23.20;45.40;;;;;;10452941;28;20217;-74
2021/07/07 20:40:11;;;;;;;3.70;2.90;;;23.20;45.50;;;;;;10454691;28;20259;-74
2021/07/07 20:45:14;;;;;;;3.90;3.10;;;23.20;45.90;;;;;;10453520;28;20235;-74
2021/07/07 20:50:18;;;;;;;3.50;3.00;;;23.20;45.50;;;;;;10454216;28;20225;-74
2021/07/07 20:55:22;;;;;;;2.90;2.70;;;23.10;45.40;;;;;;10463785;28;20275;-74
2021/07/07 21:00:26;;;;;;;3.67;2.97;;;23.00;45.60;;;;;;10452311;28;20239;-74
2021/07/07 21:05:29;;;;;;;3.47;3.20;;;23.00;45.50;;;;;;10457698;28;20657;-74
2021/07/07 21:10:34;;;;;;;3.10;2.80;;;23.00;45.60;;;;;;10460283;28;20720;-74
2021/07/07 21:15:37;;;;;;;3.07;2.47;;;22.90;45.90;;;;;;10451318;28;20213;-74
2021/07/07 21:20:40;;;;;;;2.87;2.60;;;22.90;45.60;;;;;;10454724;28;20709;-74
2021/07/07 21:25:45;;;;;;;2.80;2.67;;;22.90;45.80;;;;;;10452936;28;20237;-74
2021/07/07 21:30:48;;;;;;;2.70;2.50;;;22.80;46.00;;;;;;10454694;28;20227;-74
2021/07/07 21:35:51;;;;;;;2.83;2.63;;;22.80;45.70;;;;;;10445867;28;20236;-74
2021/07/07 21:40:56;;;;;;;3.03;2.83;;;22.80;45.80;;;;;;10452197;28;20233;-74
2021/07/07 21:46:04;;;;;;;2.67;2.47;;;22.70;46.80;;;;;;10451791;28;20776;-74
2021/07/07 21:51:07;;;;;;;3.60;3.10;;;22.70;45.90;;;;;;10451737;28;20808;-74
2021/07/07 21:56:12;;;;;;;3.40;3.20;;;22.70;46.20;;;;;;10454052;28;20605;-74
2021/07/07 22:01:15;;;;;;;3.60;3.30;;;22.70;46.60;;;;;;10453940;28;20239;-74
2021/07/07 22:06:18;;;;;;;3.50;3.30;;;22.70;46.20;;;;;;10446458;28;20224;-74
2021/07/07 22:11:23;;;;;;;3.80;3.37;;;22.60;46.00;;;;;;10452943;28;20240;-75
2021/07/07 22:16:27;;;;;;;3.67;3.37;;;22.60;46.60;;;;;;10451272;28;20573;-74
2021/07/07 22:21:33;;;;;;;4.07;3.67;;;22.50;46.50;;;;;;10451125;28;20327;-73
2021/07/07 22:26:38;;;;;;;4.93;3.20;;;22.40;46.50;;;;;;10445023;28;20232;-74
2021/07/07 22:31:42;;;;;;;4.47;3.37;;;22.40;47.30;;;;;;10443071;28;20229;-74
2021/07/07 22:36:45;;;;;;;3.40;3.10;;;22.40;47.40;;;;;;10457600;28;20225;-74
2021/07/07 22:41:50;;;;;;;3.87;2.83;;;22.30;47.40;;;;;;10451979;28;20225;-73
2021/07/07 22:46:54;;;;;;;4.07;3.10;;;22.30;48.00;;;;;;10450577;28;20233;-74
2021/07/07 22:51:58;;;;;;;5.73;3.80;;;22.20;47.30;;;;;;10450895;28;20225;-74
2021/07/07 22:57:02;;;;;;;6.47;3.83;;;22.20;47.90;;;;;;10451610;28;20224;-74
2021/07/07 23:02:06;;;;;;;4.10;3.70;;;22.10;48.30;;;;;;10451504;28;20592;-73
2021/07/07 23:07:09;;;;;;;3.33;3.00;;;22.10;47.90;;;;;;10455432;28;20267;-74
2021/07/07 23:12:13;;;;;;;3.97;3.50;;;22.10;47.70;;;;;;10454338;28;20236;-74
2021/07/07 23:17:17;;;;;;;6.17;3.60;;;22.20;48.40;;;;;;10451842;28;20581;-73
2021/07/07 23:22:20;;;;;;;3.30;3.10;;;22.20;48.00;;;;;;10449764;28;20902;-74
2021/07/07 23:27:25;;;;;;;3.10;2.90;;;22.10;47.80;;;;;;10450032;28;20677;-74
2021/07/07 23:32:28;;;;;;;3.17;2.97;;;22.10;48.00;;;;;;10451147;28;20697;-74
2021/07/07 23:37:31;;;;;;;3.33;3.03;;;22.20;48.00;;;;;;10451703;28;20221;-73
2021/07/07 23:42:35;;;;;;;4.07;3.40;;;22.20;48.00;;;;;;10446908;28;20574;-74
2021/07/07 23:47:39;;;;;;;4.10;3.43;;;22.20;48.40;;;;;;10455846;28;20232;-73
2021/07/07 23:52:43;;;;;;;6.57;3.23;;;22.20;48.20;;;;;;10458775;28;20246;-74
2021/07/07 23:57:47;;;;;;;3.00;2.80;;;22.30;48.20;;;;;;10456150;28;20923;-74
